Hlavní strana
METAR-TAF:

METAR-TAF

Letiště :

Reus, Španělsko

zeměpisná šířka: 41-09N, zeměpisná délka: 001-10E, výška: 71 m

Aktuální stav počasí

Zpráva byla vytvořena před 27 minutami, v 02:30 UTC
vítr z různých směrů 2 kt
Teplota 16°C
Vlhkost vzduchu 100%
Tlak 1025 hPa
Viditelnost 10 km a více

METAR: LERS 260230Z AUTO VRB02KT 9999 ////// 16/16 Q1025

Čas: 04:57 (02:57 UTC)

Předpověď počasí

Zpráva byla vytvořena před 57 minutami, v 02:00 UTC
Předpověď platná od 26 v 03 UTC do 27 v 03 UTC
vítr z různých směrů 4 kt
Viditelnost 10 km a více
Skoro jasno ve výšce 3000 ft
Změna
od 26 v 08 UTC do 26 v 10 UTC
Jižní vítr 10 kt
Změna
od 26 v 19 UTC do 26 v 21 UTC
vítr z různých směrů 4 kt

TAF: LERS 260200Z 2603/2703 VRB04KT 9999 FEW030 TX27/2612Z TN16/2606Z BECMG 2608/2610 17010KT BECMG 2619/2621 VRB04KT

Stav a předpovědi počasí z více než 4 000 letišť (zprávy METAR a TAF).

Červené a žluté tečky na mapě představují dostupné meteorologické stanice.

Když kurzor umístíte na tečku, zobrazí se název stanice.

Pak kliknutím zobrazíte stav a předpověď počasí.

Chcete-li změnit mapu, kliknutím na zelené tlačítko se znaménkem +mapu přiblížíte, kliknutím na zelené tlačítko se znaménkem – mapu oddálíte a kliknutím na zelené šipky přejdete na sousední mapy.


METAR-TAF: